createdAt,value
2022-12-09T00:00:11.989Z,3.81
2022-12-09T00:02:40.907Z,3.86
2022-12-09T00:05:10.840Z,3.79
2022-12-09T00:07:39.633Z,3.80
2022-12-09T00:10:10.041Z,3.79
2022-12-09T00:12:40.279Z,3.86
2022-12-09T00:15:09.792Z,3.87
2022-12-09T00:17:38.763Z,3.90
2022-12-09T00:20:09.796Z,3.86
2022-12-09T00:22:38.466Z,3.87
2022-12-09T00:25:08.223Z,3.91
2022-12-09T00:27:37.017Z,3.97
2022-12-09T00:30:09.946Z,3.92
2022-12-09T00:32:39.064Z,3.87
2022-12-09T00:35:08.231Z,3.88
2022-12-09T00:37:36.861Z,3.90
2022-12-09T00:40:07.211Z,3.88
2022-12-09T00:42:36.425Z,3.88
2022-12-09T00:45:07.863Z,3.83
2022-12-09T00:47:36.920Z,3.80
2022-12-09T00:50:07.700Z,3.85
2022-12-09T00:52:36.408Z,3.88
2022-12-09T00:55:07.655Z,3.86
2022-12-09T00:57:36.108Z,3.93
2022-12-09T01:00:08.866Z,3.90
2022-12-09T01:02:38.173Z,3.86
2022-12-09T01:05:07.693Z,3.84
2022-12-09T01:07:37.834Z,3.83
2022-12-09T01:10:08.093Z,3.77
2022-12-09T01:12:36.788Z,3.75
2022-12-09T01:15:08.982Z,3.72
2022-12-09T01:17:38.314Z,3.68
2022-12-09T01:20:10.321Z,3.70
2022-12-09T01:22:39.612Z,3.71
2022-12-09T01:25:08.986Z,3.65
2022-12-09T01:27:37.514Z,3.65
2022-12-09T01:30:10.739Z,3.68
2022-12-09T01:32:39.489Z,3.61
2022-12-09T01:35:09.299Z,3.57
2022-12-09T01:37:38.972Z,3.53
2022-12-09T01:40:12.025Z,3.45
2022-12-09T01:42:40.903Z,3.42
2022-12-09T01:45:40.220Z,3.35
2022-12-09T01:48:14.223Z,3.35
2022-12-09T01:50:51.053Z,3.29
2022-12-09T01:53:21.678Z,3.28
2022-12-09T01:55:50.760Z,3.20
2022-12-09T01:58:20.213Z,3.29
2022-12-09T02:00:50.342Z,3.22
2022-12-09T02:03:22.407Z,3.37
2022-12-09T02:05:51.110Z,3.42
2022-12-09T02:08:21.242Z,3.29
2022-12-09T02:11:04.991Z,3.15
2022-12-09T02:13:49.703Z,3.08
2022-12-09T02:16:24.484Z,3.11
2022-12-09T02:19:01.256Z,3.06
2022-12-09T02:21:37.004Z,3.07
2022-12-09T02:24:15.908Z,3.05
2022-12-09T02:26:55.820Z,3.15
2022-12-09T02:29:44.585Z,3.12
2022-12-09T02:32:41.283Z,3.12
2022-12-09T02:35:21.909Z,3.12
2022-12-09T02:37:58.360Z,3.14
2022-12-09T02:40:35.732Z,3.20
2022-12-09T02:43:07.898Z,3.20
2022-12-09T02:45:38.834Z,3.21
2022-12-09T02:48:08.428Z,3.30
2022-12-09T02:50:41.734Z,3.22
2022-12-09T02:53:14.150Z,3.29
2022-12-09T02:55:46.316Z,3.33
2022-12-09T02:58:15.070Z,3.26
2022-12-09T03:00:44.202Z,3.24
2022-12-09T03:03:16.997Z,3.20
2022-12-09T03:05:53.531Z,3.17
2022-12-09T03:08:32.710Z,3.19
2022-12-09T03:11:05.072Z,3.15
2022-12-09T03:13:48.140Z,3.10
2022-12-09T03:16:25.465Z,3.05
2022-12-09T03:18:59.118Z,2.87
2022-12-09T03:21:31.094Z,2.83
2022-12-09T03:24:01.837Z,2.87
2022-12-09T03:26:35.164Z,2.82
2022-12-09T03:29:08.139Z,2.87
2022-12-09T03:31:38.316Z,2.90
2022-12-09T03:34:11.482Z,2.64
2022-12-09T03:36:43.745Z,2.77
2022-12-09T03:39:16.431Z,2.78
2022-12-09T03:41:47.651Z,2.77
2022-12-09T03:44:27.718Z,2.77
2022-12-09T03:46:56.432Z,2.71
2022-12-09T03:49:24.981Z,2.69
2022-12-09T03:52:02.369Z,2.65
2022-12-09T03:54:37.991Z,2.60
2022-12-09T03:57:07.035Z,2.56
2022-12-09T03:59:36.654Z,2.52
2022-12-09T04:02:07.195Z,2.52
2022-12-09T04:04:36.795Z,2.64
2022-12-09T04:07:06.976Z,2.58
2022-12-09T04:09:36.250Z,2.73
2022-12-09T04:12:05.015Z,2.72
2022-12-09T04:14:34.082Z,2.74
2022-12-09T04:17:02.683Z,2.71
2022-12-09T04:19:31.571Z,2.70
2022-12-09T04:22:01.890Z,2.63
2022-12-09T04:24:31.756Z,2.62
2022-12-09T04:27:00.185Z,2.60
2022-12-09T04:29:28.888Z,2.63
2022-12-09T04:31:57.867Z,2.53
2022-12-09T04:34:26.490Z,2.54
2022-12-09T04:36:55.060Z,2.50
2022-12-09T04:39:23.542Z,2.53
2022-12-09T04:41:53.308Z,2.51
2022-12-09T04:44:21.967Z,2.41
2022-12-09T04:46:50.871Z,2.48
2022-12-09T04:49:19.391Z,2.45
2022-12-09T04:51:49.160Z,2.36
2022-12-09T04:54:17.873Z,2.27
2022-12-09T04:56:46.293Z,2.25
2022-12-09T04:59:16.853Z,2.38
2022-12-09T05:01:45.699Z,2.40
2022-12-09T05:04:14.342Z,2.41
2022-12-09T05:06:43.421Z,2.50
2022-12-09T05:09:14.538Z,2.51
2022-12-09T05:11:43.260Z,2.53
2022-12-09T05:14:11.892Z,2.56
2022-12-09T05:16:42.192Z,2.55
2022-12-09T05:19:11.517Z,2.56
2022-12-09T05:21:40.622Z,2.54
2022-12-09T05:24:09.427Z,2.46
2022-12-09T05:26:38.467Z,2.35
2022-12-09T05:29:07.577Z,2.41
2022-12-09T05:31:36.476Z,2.32
2022-12-09T05:34:07.721Z,2.27
2022-12-09T05:36:36.537Z,2.36
2022-12-09T05:39:06.083Z,2.40
2022-12-09T05:41:34.903Z,2.38
2022-12-09T05:44:04.011Z,2.46
2022-12-09T05:46:32.856Z,2.48
2022-12-09T05:49:01.958Z,2.43
2022-12-09T05:51:32.925Z,2.45
2022-12-09T05:54:03.626Z,2.39
2022-12-09T05:56:33.548Z,2.31
2022-12-09T05:59:02.513Z,2.37
2022-12-09T06:01:31.381Z,2.40
2022-12-09T06:03:59.894Z,2.46
2022-12-09T06:06:30.348Z,2.34
2022-12-09T06:09:03.620Z,2.44
2022-12-09T06:11:33.578Z,2.44
2022-12-09T06:14:02.217Z,2.46
2022-12-09T06:16:30.783Z,2.44
2022-12-09T06:19:00.000Z,2.38
2022-12-09T06:21:28.602Z,2.46
2022-12-09T06:23:57.441Z,2.51
2022-12-09T06:26:30.721Z,2.51
2022-12-09T06:29:00.514Z,2.43
2022-12-09T06:31:30.180Z,2.29
2022-12-09T06:33:59.921Z,2.35
2022-12-09T06:36:31.264Z,2.39
2022-12-09T06:39:09.642Z,2.43
2022-12-09T06:41:43.139Z,2.74
2022-12-09T06:44:18.379Z,2.85
2022-12-09T06:46:50.357Z,2.86
2022-12-09T06:49:19.116Z,2.86
2022-12-09T06:51:47.876Z,2.70
2022-12-09T06:54:16.663Z,2.57
2022-12-09T06:56:46.706Z,2.50
2022-12-09T06:59:15.571Z,2.75
2022-12-09T07:01:44.859Z,2.67
2022-12-09T07:04:15.847Z,2.66
2022-12-09T07:06:46.457Z,2.59
2022-12-09T07:09:18.847Z,2.67
2022-12-09T07:11:49.653Z,2.57
2022-12-09T07:14:20.111Z,2.59
2022-12-09T07:16:49.165Z,2.44
2022-12-09T07:19:20.211Z,2.43
2022-12-09T07:21:49.507Z,2.56
2022-12-09T07:24:20.234Z,3.04
2022-12-09T07:26:50.821Z,3.13
2022-12-09T07:29:20.118Z,3.24
2022-12-09T07:31:49.559Z,3.28
2022-12-09T07:34:18.798Z,3.33
2022-12-09T07:36:48.199Z,2.87
2022-12-09T07:39:19.294Z,2.58
2022-12-09T07:41:53.274Z,2.46
2022-12-09T07:44:21.790Z,2.31
2022-12-09T07:46:50.696Z,2.36
2022-12-09T07:49:19.410Z,2.28
2022-12-09T07:51:48.375Z,2.19
2022-12-09T07:54:19.108Z,2.12
2022-12-09T07:56:50.020Z,2.08
2022-12-09T07:59:18.565Z,2.07
2022-12-09T08:01:47.282Z,2.02
2022-12-09T08:04:16.388Z,2.11
2022-12-09T08:06:44.952Z,2.06
2022-12-09T08:09:15.756Z,1.99
2022-12-09T08:11:44.689Z,1.94
2022-12-09T08:14:15.022Z,1.94
2022-12-09T08:16:44.668Z,2.06
2022-12-09T08:19:14.552Z,2.06
2022-12-09T08:21:45.504Z,1.94
2022-12-09T08:24:15.927Z,1.90
2022-12-09T08:26:44.596Z,1.95
2022-12-09T08:29:16.355Z,1.89
2022-12-09T08:31:45.604Z,1.96
2022-12-09T08:34:15.343Z,1.84
2022-12-09T08:36:45.080Z,1.85
2022-12-09T08:39:15.518Z,1.88
2022-12-09T08:41:44.875Z,1.86
2022-12-09T08:44:18.787Z,1.85
2022-12-09T08:46:49.545Z,1.87
2022-12-09T08:49:21.177Z,1.85
2022-12-09T08:51:52.640Z,1.84
2022-12-09T08:54:21.718Z,1.79
2022-12-09T08:56:55.227Z,1.70
2022-12-09T08:59:25.560Z,1.73
2022-12-09T09:01:54.507Z,1.79
2022-12-09T09:04:24.495Z,1.76
2022-12-09T09:06:54.738Z,1.71
2022-12-09T09:09:23.474Z,1.62
2022-12-09T09:11:52.574Z,1.69
2022-12-09T09:14:21.351Z,1.88
2022-12-09T09:16:52.042Z,1.88
2022-12-09T09:19:26.029Z,2.01
2022-12-09T09:21:56.261Z,1.89
2022-12-09T09:24:26.793Z,1.96
2022-12-09T09:26:56.735Z,2.10
2022-12-09T09:29:25.735Z,2.03
2022-12-09T09:31:56.521Z,2.09
2022-12-09T09:34:26.975Z,2.15
2022-12-09T09:36:57.837Z,2.03
2022-12-09T09:39:26.585Z,2.00
2022-12-09T09:42:01.968Z,1.92
2022-12-09T09:44:38.890Z,2.02
2022-12-09T09:47:19.856Z,1.73
2022-12-09T09:49:55.702Z,1.78
2022-12-09T09:52:28.394Z,1.82
2022-12-09T09:54:58.007Z,1.94
2022-12-09T09:57:36.752Z,1.94
2022-12-09T10:00:22.379Z,2.00
2022-12-09T10:03:01.346Z,2.02
2022-12-09T10:05:34.341Z,2.14
2022-12-09T10:08:27.079Z,2.14
2022-12-09T10:11:09.152Z,2.20
2022-12-09T10:13:48.568Z,2.28
2022-12-09T10:16:20.963Z,2.19
2022-12-09T10:19:08.901Z,2.32
2022-12-09T10:21:43.478Z,2.42
2022-12-09T10:24:25.021Z,2.42
2022-12-09T10:27:04.899Z,2.66
2022-12-09T10:29:56.065Z,2.64
2022-12-09T10:32:28.811Z,2.74
2022-12-09T10:34:59.259Z,2.62
2022-12-09T10:37:32.131Z,2.67
2022-12-09T10:40:18.157Z,2.63
2022-12-09T10:43:08.074Z,2.61
2022-12-09T10:46:15.845Z,2.63
2022-12-09T10:48:37.665Z,2.65
2022-12-09T10:51:14.163Z,2.81
2022-12-09T10:53:48.721Z,2.90
2022-12-09T10:56:24.356Z,3.07
2022-12-09T10:59:12.722Z,3.27
2022-12-09T11:01:51.993Z,3.56
2022-12-09T11:04:26.859Z,3.54
2022-12-09T11:07:01.103Z,3.61
2022-12-09T11:09:32.204Z,3.45
2022-12-09T11:12:02.269Z,3.36
2022-12-09T11:14:36.684Z,3.17
2022-12-09T11:17:18.745Z,3.25
2022-12-09T11:19:51.430Z,3.30
2022-12-09T11:22:39.580Z,3.20
2022-12-09T11:25:23.971Z,3.13
2022-12-09T11:27:56.272Z,3.07
2022-12-09T11:30:28.003Z,3.00
2022-12-09T11:33:03.329Z,3.05
2022-12-09T11:35:52.828Z,3.35
2022-12-09T11:38:33.217Z,3.36
2022-12-09T11:41:07.860Z,3.40
2022-12-09T11:43:41.276Z,3.18
2022-12-09T11:46:25.770Z,3.05
2022-12-09T11:48:58.396Z,2.84
2022-12-09T11:51:32.919Z,3.01
2022-12-09T11:54:10.345Z,2.89
2022-12-09T11:56:41.733Z,3.00
2022-12-09T11:59:16.466Z,3.29
2022-12-09T12:01:53.230Z,3.66
2022-12-09T12:04:28.582Z,3.81
2022-12-09T12:07:03.495Z,4.20
2022-12-09T12:09:40.825Z,4.16
2022-12-09T12:12:19.706Z,4.30
2022-12-09T12:14:48.314Z,4.27
2022-12-09T12:17:25.899Z,4.01
2022-12-09T12:19:56.387Z,4.01
2022-12-09T12:23:05.101Z,4.09
2022-12-09T12:25:48.124Z,3.99
2022-12-09T12:29:06.887Z,4.29
2022-12-09T12:32:14.554Z,4.26
2022-12-09T12:34:53.610Z,4.22
2022-12-09T12:37:39.951Z,3.89
2022-12-09T12:40:22.015Z,3.60
2022-12-09T12:43:28.573Z,3.54
2022-12-09T12:46:21.952Z,3.48
2022-12-09T12:49:24.308Z,3.33
2022-12-09T12:52:04.671Z,3.59
2022-12-09T12:54:45.503Z,3.65
2022-12-09T12:57:21.227Z,3.60
2022-12-09T13:00:00.026Z,3.62
2022-12-09T13:02:41.527Z,3.52
2022-12-09T13:05:19.962Z,3.40
2022-12-09T13:07:52.878Z,3.45
2022-12-09T13:10:31.824Z,3.31
2022-12-09T13:13:02.016Z,3.30
2022-12-09T13:15:34.956Z,3.22
2022-12-09T13:18:12.966Z,3.28
2022-12-09T13:20:47.849Z,3.34
2022-12-09T13:23:33.754Z,3.40
2022-12-09T13:26:19.120Z,3.51
2022-12-09T13:28:54.307Z,3.59
2022-12-09T13:31:29.974Z,3.59
2022-12-09T13:34:18.120Z,3.55
2022-12-09T13:36:48.920Z,3.67
2022-12-09T13:39:59.489Z,4.01
2022-12-09T13:42:56.470Z,3.99
2022-12-09T13:45:34.832Z,3.97
2022-12-09T13:48:46.773Z,3.89
2022-12-09T13:51:16.424Z,3.68
2022-12-09T13:54:03.793Z,3.51
2022-12-09T13:56:35.419Z,3.54
2022-12-09T13:59:43.621Z,3.43
2022-12-09T14:02:23.107Z,3.47
2022-12-09T14:05:06.985Z,3.45
2022-12-09T14:07:42.960Z,3.49
2022-12-09T14:10:40.776Z,3.37
2022-12-09T14:13:30.639Z,3.42
2022-12-09T14:16:19.409Z,3.46
2022-12-09T14:18:47.842Z,3.35
2022-12-09T14:21:33.704Z,3.46
2022-12-09T14:24:36.673Z,3.31
2022-12-09T14:27:17.842Z,3.29
2022-12-09T14:29:51.591Z,3.30
2022-12-09T14:32:24.231Z,3.34
2022-12-09T14:35:08.879Z,3.49
2022-12-09T14:38:10.373Z,3.37
2022-12-09T14:40:56.897Z,3.36
2022-12-09T14:44:08.569Z,3.37
2022-12-09T14:46:39.400Z,3.25
2022-12-09T14:49:16.984Z,3.26
2022-12-09T14:51:49.959Z,3.09
2022-12-09T14:54:28.376Z,2.86
2022-12-09T14:57:00.327Z,2.77
2022-12-09T14:59:31.697Z,2.70
2022-12-09T15:02:03.206Z,2.60
2022-12-09T15:04:35.632Z,2.40
2022-12-09T15:07:15.800Z,2.38
2022-12-09T15:09:55.798Z,2.29
2022-12-09T15:12:31.423Z,2.32
2022-12-09T15:15:06.411Z,2.19
2022-12-09T15:17:43.233Z,2.29
2022-12-09T15:20:27.721Z,2.25
2022-12-09T15:23:00.470Z,2.28
2022-12-09T15:25:30.900Z,2.21
2022-12-09T15:28:01.977Z,2.08
2022-12-09T15:30:35.168Z,2.07
2022-12-09T15:33:05.250Z,2.11
2022-12-09T15:35:35.323Z,2.11
2022-12-09T15:38:08.764Z,2.15
2022-12-09T15:40:59.215Z,1.92
2022-12-09T15:43:27.753Z,1.88
2022-12-09T15:45:56.535Z,1.87
2022-12-09T15:48:33.074Z,1.90
2022-12-09T15:51:06.575Z,1.82
2022-12-09T15:53:40.677Z,1.76
2022-12-09T15:56:15.920Z,1.83
2022-12-09T15:58:49.624Z,1.89
2022-12-09T16:01:23.846Z,1.91
2022-12-09T16:03:54.729Z,1.90
2022-12-09T16:06:28.555Z,1.80
2022-12-09T16:08:57.059Z,1.86
2022-12-09T16:11:42.494Z,1.83
2022-12-09T16:14:11.825Z,1.72
2022-12-09T16:16:48.333Z,1.71
2022-12-09T16:19:38.260Z,1.75
2022-12-09T16:22:09.759Z,1.73
2022-12-09T16:25:13.483Z,1.70
2022-12-09T16:27:38.258Z,1.80
2022-12-09T16:30:15.339Z,1.81
2022-12-09T16:32:47.926Z,1.69
2022-12-09T16:35:24.234Z,1.67
2022-12-09T16:38:17.332Z,1.74
2022-12-09T16:41:13.358Z,1.70
2022-12-09T16:43:58.522Z,1.72
2022-12-09T16:46:41.523Z,1.80
2022-12-09T16:49:10.223Z,1.71
2022-12-09T16:51:40.486Z,1.70
2022-12-09T16:54:20.579Z,1.70
2022-12-09T16:56:51.381Z,1.68
2022-12-09T16:59:21.370Z,1.59
2022-12-09T17:01:50.298Z,1.71
2022-12-09T17:04:23.482Z,1.78
2022-12-09T17:06:52.259Z,1.63
2022-12-09T17:09:21.035Z,1.72
2022-12-09T17:11:49.616Z,1.61
2022-12-09T17:14:19.947Z,1.66
2022-12-09T17:16:48.558Z,1.77
2022-12-09T17:19:19.570Z,1.62
2022-12-09T17:21:47.962Z,1.69
2022-12-09T17:24:17.248Z,1.58
2022-12-09T17:26:45.699Z,1.58
2022-12-09T17:29:14.719Z,1.64
2022-12-09T17:31:44.698Z,1.61
2022-12-09T17:34:13.165Z,1.62
2022-12-09T17:36:41.653Z,1.56
2022-12-09T17:39:12.744Z,1.63
2022-12-09T17:41:41.215Z,1.54
2022-12-09T17:44:10.333Z,1.48
2022-12-09T17:46:38.816Z,1.57
2022-12-09T17:49:08.613Z,1.56
2022-12-09T17:51:36.991Z,1.52
2022-12-09T17:54:06.026Z,1.48
2022-12-09T17:56:34.562Z,1.53
2022-12-09T17:59:07.400Z,1.44
2022-12-09T18:01:37.696Z,1.54
2022-12-09T18:04:10.489Z,1.62
2022-12-09T18:06:41.265Z,1.62
2022-12-09T18:09:12.543Z,1.49
2022-12-09T18:11:41.543Z,1.59
2022-12-09T18:14:11.098Z,1.59
2022-12-09T18:16:39.797Z,1.56
2022-12-09T18:19:15.312Z,1.52
2022-12-09T18:21:44.192Z,1.50
2022-12-09T18:24:12.825Z,1.55
2022-12-09T18:26:42.353Z,1.56
2022-12-09T18:29:11.921Z,1.49
2022-12-09T18:31:40.722Z,1.40
2022-12-09T18:34:10.618Z,1.45
2022-12-09T18:36:39.436Z,1.44
2022-12-09T18:39:08.497Z,1.60
2022-12-09T18:41:37.049Z,1.46
2022-12-09T18:44:08.242Z,1.46
2022-12-09T18:46:39.337Z,1.57
2022-12-09T18:49:13.074Z,1.49
2022-12-09T18:51:43.118Z,1.53
2022-12-09T18:54:17.344Z,1.41
2022-12-09T18:56:46.632Z,1.32
2022-12-09T18:59:15.208Z,1.44
2022-12-09T19:01:46.330Z,1.25
2022-12-09T19:04:19.403Z,1.51
2022-12-09T19:06:50.474Z,1.37
2022-12-09T19:09:21.336Z,1.17
2022-12-09T19:11:51.574Z,1.13
2022-12-09T19:14:23.123Z,1.30
2022-12-09T19:16:52.623Z,1.36
2022-12-09T19:19:25.560Z,1.24
2022-12-09T19:21:55.215Z,1.32
2022-12-09T19:24:26.543Z,1.32
2022-12-09T19:26:57.922Z,1.31
2022-12-09T19:29:28.092Z,1.34
2022-12-09T19:31:58.413Z,1.39
2022-12-09T19:34:30.520Z,1.10
2022-12-09T19:37:01.696Z,0.94
2022-12-09T19:39:34.052Z,0.87
2022-12-09T19:42:05.085Z,0.97
2022-12-09T19:45:00.345Z,0.96
2022-12-09T19:47:23.849Z,0.95
2022-12-09T19:49:53.635Z,0.96
2022-12-09T19:52:22.140Z,1.02
2022-12-09T19:54:50.652Z,0.92
2022-12-09T19:57:19.156Z,0.73
2022-12-09T19:59:48.233Z,0.76
2022-12-09T20:02:16.724Z,0.69
2022-12-09T20:04:50.195Z,0.83
2022-12-09T20:07:21.083Z,0.71
2022-12-09T20:09:49.987Z,0.70
2022-12-09T20:12:18.460Z,0.92
2022-12-09T20:14:47.046Z,0.71
2022-12-09T20:17:16.775Z,0.82
2022-12-09T20:19:45.579Z,0.99
2022-12-09T20:22:14.063Z,0.87
2022-12-09T20:24:44.352Z,1.01
2022-12-09T20:27:13.040Z,0.87
2022-12-09T20:29:41.478Z,0.87
2022-12-09T20:32:10.774Z,1.02
2022-12-09T20:34:39.676Z,0.90
2022-12-09T20:37:08.494Z,0.82
2022-12-09T20:39:37.103Z,0.79
2022-12-09T20:42:07.299Z,0.80
2022-12-09T20:44:35.711Z,0.85
2022-12-09T20:47:04.207Z,0.95
2022-12-09T20:49:32.676Z,0.92
2022-12-09T20:52:01.179Z,0.91
2022-12-09T20:54:29.782Z,0.88
2022-12-09T20:56:58.178Z,0.93
2022-12-09T20:59:28.509Z,0.97
2022-12-09T21:01:57.003Z,1.09
2022-12-09T21:04:25.528Z,1.02
2022-12-09T21:06:54.101Z,1.00
2022-12-09T21:09:27.216Z,0.98
2022-12-09T21:11:55.703Z,1.05
2022-12-09T21:14:28.120Z,0.91
2022-12-09T21:17:03.028Z,0.96
2022-12-09T21:19:32.545Z,1.06
2022-12-09T21:22:01.050Z,1.09
2022-12-09T21:24:29.558Z,1.11
2022-12-09T21:26:58.153Z,1.19
2022-12-09T21:29:31.510Z,0.98
2022-12-09T21:32:02.684Z,0.94
2022-12-09T21:34:31.695Z,0.91
2022-12-09T21:37:00.398Z,0.89
2022-12-09T21:39:29.325Z,0.93
2022-12-09T21:41:57.759Z,0.91
2022-12-09T21:44:27.276Z,1.00
2022-12-09T21:46:55.763Z,1.02
2022-12-09T21:49:25.991Z,1.06
2022-12-09T21:51:54.409Z,0.88
2022-12-09T21:54:22.848Z,0.94
2022-12-09T21:56:51.290Z,0.91
2022-12-09T21:59:19.905Z,0.86
2022-12-09T22:01:48.416Z,0.94
2022-12-09T22:04:17.847Z,0.93
2022-12-09T22:06:50.039Z,0.96
2022-12-09T22:09:21.232Z,0.99
2022-12-09T22:11:49.948Z,0.83
2022-12-09T22:14:18.440Z,0.90
2022-12-09T22:16:47.594Z,0.84
2022-12-09T22:19:18.618Z,0.85
2022-12-09T22:21:49.729Z,0.89
2022-12-09T22:24:19.339Z,0.95
2022-12-09T22:26:48.558Z,0.90
2022-12-09T22:29:18.783Z,1.00
2022-12-09T22:31:47.977Z,0.86
2022-12-09T22:34:19.871Z,0.94
2022-12-09T22:36:50.617Z,0.90
2022-12-09T22:39:22.758Z,0.92
2022-12-09T22:41:51.876Z,0.80
2022-12-09T22:44:21.298Z,0.80
2022-12-09T22:46:50.083Z,0.79
2022-12-09T22:49:19.795Z,0.84
2022-12-09T22:51:49.740Z,0.77
2022-12-09T22:54:18.540Z,0.70
2022-12-09T22:56:47.059Z,0.64
2022-12-09T22:59:16.093Z,0.74
2022-12-09T23:01:47.491Z,0.76
2022-12-09T23:04:19.071Z,0.67
2022-12-09T23:06:47.527Z,0.82
2022-12-09T23:09:21.049Z,0.58
2022-12-09T23:11:50.527Z,0.66
2022-12-09T23:14:19.875Z,0.75
2022-12-09T23:16:48.464Z,0.71
2022-12-09T23:19:16.815Z,0.61
2022-12-09T23:21:45.256Z,0.64
2022-12-09T23:24:24.122Z,0.54
2022-12-09T23:26:55.393Z,0.60
2022-12-09T23:29:23.957Z,0.47
2022-12-09T23:31:52.427Z,0.59
2022-12-09T23:34:21.268Z,0.54
2022-12-09T23:36:49.696Z,0.43
2022-12-09T23:39:20.687Z,0.50
2022-12-09T23:41:49.731Z,0.38
2022-12-09T23:44:20.316Z,0.49
2022-12-09T23:46:49.592Z,0.58
2022-12-09T23:49:18.680Z,0.43
2022-12-09T23:51:48.069Z,0.52
2022-12-09T23:54:19.434Z,0.55
2022-12-09T23:56:50.710Z,0.62
2022-12-09T23:59:22.405Z,0.58
